sensor_id;sensor_type;location;lat;lon;timestamp;pressure;altitude;pressure_sealevel;temperature;humidity
57050;BME280;42935;50.966;16.992;2023-05-03T00:01:53;102359.36;;;9.74;100.00
57050;BME280;42935;50.966;16.992;2023-05-03T00:05:17;102374.02;;;9.79;100.00
57050;BME280;42935;50.966;16.992;2023-05-03T00:08:37;102368.43;;;9.83;100.00
57050;BME280;42935;50.966;16.992;2023-05-03T00:12:04;102368.89;;;9.79;100.00
57050;BME280;42935;50.966;16.992;2023-05-03T00:15:21;102372.05;;;9.67;100.00
57050;BME280;42935;50.966;16.992;2023-05-03T00:18:39;102366.63;;;9.58;100.00
57050;BME280;42935;50.966;16.992;2023-05-03T00:21:55;102378.45;;;9.55;100.00
57050;BME280;42935;50.966;16.992;2023-05-03T00:25:19;102379.95;;;9.44;100.00
57050;BME280;42935;50.966;16.992;2023-05-03T00:28:43;102387.77;;;9.46;100.00
57050;BME280;42935;50.966;16.992;2023-05-03T00:32:00;102388.79;;;9.52;100.00
57050;BME280;42935;50.966;16.992;2023-05-03T00:35:19;102379.16;;;9.30;100.00
57050;BME280;42935;50.966;16.992;2023-05-03T00:38:39;102374.95;;;9.29;100.00
57050;BME280;42935;50.966;16.992;2023-05-03T00:41:57;102390.42;;;9.33;99.66
57050;BME280;42935;50.966;16.992;2023-05-03T00:45:18;102390.33;;;9.33;99.25
57050;BME280;42935;50.966;16.992;2023-05-03T00:48:34;102384.44;;;9.19;96.44
57050;BME280;42935;50.966;16.992;2023-05-03T00:51:56;102395.73;;;9.22;95.20
57050;BME280;42935;50.966;16.992;2023-05-03T00:55:14;102389.22;;;9.09;93.88
57050;BME280;42935;50.966;16.992;2023-05-03T00:58:33;102401.22;;;9.05;95.45
57050;BME280;42935;50.966;16.992;2023-05-03T01:01:56;102401.02;;;9.09;94.47
57050;BME280;42935;50.966;16.992;2023-05-03T01:05:12;102393.87;;;9.10;96.35
57050;BME280;42935;50.966;16.992;2023-05-03T01:08:37;102404.34;;;9.14;94.49
57050;BME280;42935;50.966;16.992;2023-05-03T01:12:17;102408.42;;;9.16;96.10
57050;BME280;42935;50.966;16.992;2023-05-03T01:19:25;102416.30;;;9.05;100.00
57050;BME280;42935;50.966;16.992;2023-05-03T01:26:25;102414.43;;;8.97;100.00
57050;BME280;42935;50.966;16.992;2023-05-03T01:29:54;102420.69;;;9.04;99.71
57050;BME280;42935;50.966;16.992;2023-05-03T01:33:29;102411.40;;;8.94;100.00
57050;BME280;42935;50.966;16.992;2023-05-03T01:36:43;102425.74;;;8.90;100.00
57050;BME280;42935;50.966;16.992;2023-05-03T01:40:02;102416.23;;;8.79;100.00
57050;BME280;42935;50.966;16.992;2023-05-03T01:43:21;102428.81;;;8.82;100.00
57050;BME280;42935;50.966;16.992;2023-05-03T01:46:46;102426.20;;;8.83;100.00
57050;BME280;42935;50.966;16.992;2023-05-03T01:50:05;102414.54;;;8.60;100.00
57050;BME280;42935;50.966;16.992;2023-05-03T01:53:22;102424.29;;;8.61;100.00
57050;BME280;42935;50.966;16.992;2023-05-03T01:56:43;102424.26;;;8.65;100.00
57050;BME280;42935;50.966;16.992;2023-05-03T02:00:06;102417.66;;;8.53;100.00
57050;BME280;42935;50.966;16.992;2023-05-03T02:03:24;102436.15;;;8.65;100.00
57050;BME280;42935;50.966;16.992;2023-05-03T02:06:43;102440.22;;;8.59;100.00
57050;BME280;42935;50.966;16.992;2023-05-03T02:10:09;102444.55;;;8.51;100.00
57050;BME280;42935;50.966;16.992;2023-05-03T02:13:36;102445.47;;;8.55;100.00
57050;BME280;42935;50.966;16.992;2023-05-03T02:17:00;102439.71;;;8.40;100.00
57050;BME280;42935;50.966;16.992;2023-05-03T02:20:20;102433.63;;;8.45;100.00
57050;BME280;42935;50.966;16.992;2023-05-03T02:23:41;102449.35;;;8.48;100.00
57050;BME280;42935;50.966;16.992;2023-05-03T02:26:58;102426.38;;;8.28;100.00
57050;BME280;42935;50.966;16.992;2023-05-03T02:30:18;102446.87;;;8.30;100.00
57050;BME280;42935;50.966;16.992;2023-05-03T02:33:35;102446.66;;;8.21;100.00
57050;BME280;42935;50.966;16.992;2023-05-03T02:36:52;102438.94;;;8.05;100.00
57050;BME280;42935;50.966;16.992;2023-05-03T02:40:16;102458.11;;;8.03;100.00
57050;BME280;42935;50.966;16.992;2023-05-03T02:43:33;102454.93;;;7.89;97.61
57050;BME280;42935;50.966;16.992;2023-05-03T02:47:00;102451.37;;;7.70;96.30
57050;BME280;42935;50.966;16.992;2023-05-03T02:50:16;102454.95;;;7.77;96.12
57050;BME280;42935;50.966;16.992;2023-05-03T02:53:35;102452.77;;;7.64;95.02
57050;BME280;42935;50.966;16.992;2023-05-03T02:56:55;102456.82;;;7.53;95.67
57050;BME280;42935;50.966;16.992;2023-05-03T03:00:15;102461.01;;;7.46;96.79
57050;BME280;42935;50.966;16.992;2023-05-03T03:03:37;102468.88;;;7.29;97.73
57050;BME280;42935;50.966;16.992;2023-05-03T03:06:57;102468.21;;;7.24;100.00
57050;BME280;42935;50.966;16.992;2023-05-03T03:10:15;102466.97;;;7.10;100.00
57050;BME280;42935;50.966;16.992;2023-05-03T03:14:05;102470.77;;;7.02;100.00
57050;BME280;42935;50.966;16.992;2023-05-03T03:17:20;102463.15;;;6.83;100.00
57050;BME280;42935;50.966;16.992;2023-05-03T03:20:39;102474.07;;;6.86;100.00
57050;BME280;42935;50.966;16.992;2023-05-03T03:23:56;102472.68;;;6.89;100.00
57050;BME280;42935;50.966;16.992;2023-05-03T03:27:15;102466.39;;;6.70;100.00
57050;BME280;42935;50.966;16.992;2023-05-03T03:30:38;102481.84;;;6.67;100.00
57050;BME280;42935;50.966;16.992;2023-05-03T03:33:57;102473.53;;;6.43;100.00
57050;BME280;42935;50.966;16.992;2023-05-03T03:37:19;102484.11;;;6.56;100.00
57050;BME280;42935;50.966;16.992;2023-05-03T03:40:41;102480.75;;;6.57;100.00
57050;BME280;42935;50.966;16.992;2023-05-03T03:44:05;102455.90;;;6.33;100.00
57050;BME280;42935;50.966;16.992;2023-05-03T03:47:56;102490.09;;;6.48;100.00
57050;BME280;42935;50.966;16.992;2023-05-03T03:51:16;102493.86;;;6.31;100.00
57050;BME280;42935;50.966;16.992;2023-05-03T03:54:40;102485.89;;;6.26;100.00
57050;BME280;42935;50.966;16.992;2023-05-03T03:57:59;102492.05;;;6.34;100.00
57050;BME280;42935;50.966;16.992;2023-05-03T04:01:23;102466.42;;;6.15;100.00
57050;BME280;42935;50.966;16.992;2023-05-03T04:04:40;102500.69;;;6.34;100.00
57050;BME280;42935;50.966;16.992;2023-05-03T04:08:00;102509.62;;;6.26;100.00
57050;BME280;42935;50.966;16.992;2023-05-03T04:11:50;102521.61;;;6.17;100.00
57050;BME280;42935;50.966;16.992;2023-05-03T04:15:10;102526.28;;;6.16;100.00
57050;BME280;42935;50.966;16.992;2023-05-03T04:18:30;102528.03;;;6.03;100.00
57050;BME280;42935;50.966;16.992;2023-05-03T04:22:20;102532.83;;;5.98;100.00
57050;BME280;42935;50.966;16.992;2023-05-03T04:26:09;102535.13;;;5.87;100.00
57050;BME280;42935;50.966;16.992;2023-05-03T04:29:27;102533.36;;;6.00;100.00
57050;BME280;42935;50.966;16.992;2023-05-03T04:32:49;102535.48;;;6.19;100.00
57050;BME280;42935;50.966;16.992;2023-05-03T04:36:13;102536.20;;;6.28;100.00
57050;BME280;42935;50.966;16.992;2023-05-03T04:39:42;102536.79;;;6.41;100.00
57050;BME280;42935;50.966;16.992;2023-05-03T04:43:05;102544.46;;;6.42;100.00
57050;BME280;42935;50.966;16.992;2023-05-03T04:46:29;102546.03;;;6.38;100.00
57050;BME280;42935;50.966;16.992;2023-05-03T04:49:47;102550.84;;;6.48;100.00
57050;BME280;42935;50.966;16.992;2023-05-03T04:53:06;102558.11;;;6.37;100.00
57050;BME280;42935;50.966;16.992;2023-05-03T04:56:22;102557.77;;;6.35;100.00
57050;BME280;42935;50.966;16.992;2023-05-03T04:59:42;102557.19;;;6.40;100.00
57050;BME280;42935;50.966;16.992;2023-05-03T05:03:32;102573.22;;;6.52;100.00
57050;BME280;42935;50.966;16.992;2023-05-03T05:06:52;102568.98;;;6.59;100.00
57050;BME280;42935;50.966;16.992;2023-05-03T05:10:10;102568.21;;;6.65;100.00
57050;BME280;42935;50.966;16.992;2023-05-03T05:13:29;102574.09;;;6.61;99.91
57050;BME280;42935;50.966;16.992;2023-05-03T05:16:49;102565.87;;;6.66;99.76
57050;BME280;42935;50.966;16.992;2023-05-03T05:20:08;102582.86;;;6.73;98.82
57050;BME280;42935;50.966;16.992;2023-05-03T05:23:58;102583.16;;;6.59;98.60
57050;BME280;42935;50.966;16.992;2023-05-03T05:27:22;102594.57;;;6.75;97.98
57050;BME280;42935;50.966;16.992;2023-05-03T05:30:38;102587.82;;;6.81;96.91
57050;BME280;42935;50.966;16.992;2023-05-03T05:33:56;102593.06;;;6.94;96.09
57050;BME280;42935;50.966;16.992;2023-05-03T05:37:14;102595.36;;;7.00;94.99
57050;BME280;42935;50.966;16.992;2023-05-03T05:40:32;102591.86;;;7.02;92.90
57050;BME280;42935;50.966;16.992;2023-05-03T05:43:53;102601.99;;;7.21;92.27
57050;BME280;42935;50.966;16.992;2023-05-03T05:47:12;102605.69;;;7.27;89.21
57050;BME280;42935;50.966;16.992;2023-05-03T05:50:30;102612.02;;;7.24;91.57
57050;BME280;42935;50.966;16.992;2023-05-03T05:53:48;102614.83;;;7.33;91.66
57050;BME280;42935;50.966;16.992;2023-05-03T05:57:13;102623.68;;;7.32;91.56
57050;BME280;42935;50.966;16.992;2023-05-03T06:00:30;102619.19;;;7.33;91.84
57050;BME280;42935;50.966;16.992;2023-05-03T06:03:48;102630.31;;;7.40;89.81
57050;BME280;42935;50.966;16.992;2023-05-03T06:07:06;102623.81;;;7.56;92.51
57050;BME280;42935;50.966;16.992;2023-05-03T06:10:21;102633.91;;;7.74;91.32
57050;BME280;42935;50.966;16.992;2023-05-03T06:14:11;102630.15;;;7.87;86.95
57050;BME280;42935;50.966;16.992;2023-05-03T06:17:29;102641.37;;;7.85;87.38
57050;BME280;42935;50.966;16.992;2023-05-03T06:20:48;102649.37;;;8.08;89.01
57050;BME280;42935;50.966;16.992;2023-05-03T06:24:13;102639.16;;;8.12;85.53
57050;BME280;42935;50.966;16.992;2023-05-03T06:27:38;102647.17;;;8.39;83.82
57050;BME280;42935;50.966;16.992;2023-05-03T06:31:32;102646.22;;;8.44;84.07
57050;BME280;42935;50.966;16.992;2023-05-03T06:34:49;102641.05;;;8.55;84.44
57050;BME280;42935;50.966;16.992;2023-05-03T06:38:07;102649.35;;;8.68;82.14
57050;BME280;42935;50.966;16.992;2023-05-03T06:41:24;102639.05;;;8.61;83.10
57050;BME280;42935;50.966;16.992;2023-05-03T06:45:14;102651.10;;;8.68;80.88
57050;BME280;42935;50.966;16.992;2023-05-03T06:48:36;102646.81;;;8.92;79.77
57050;BME280;42935;50.966;16.992;2023-05-03T06:51:56;102649.38;;;9.10;78.48
57050;BME280;42935;50.966;16.992;2023-05-03T06:55:16;102654.62;;;9.13;77.79
57050;BME280;42935;50.966;16.992;2023-05-03T06:59:07;102655.23;;;9.04;77.84
57050;BME280;42935;50.966;16.992;2023-05-03T07:02:32;102637.32;;;9.13;77.09
57050;BME280;42935;50.966;16.992;2023-05-03T07:05:50;102640.89;;;9.52;76.49
57050;BME280;42935;50.966;16.992;2023-05-03T07:12:12;102651.62;;;9.75;76.01
57050;BME280;42935;50.966;16.992;2023-05-03T07:15:28;102652.02;;;9.61;74.48
57050;BME280;42935;50.966;16.992;2023-05-03T07:18:46;102645.86;;;9.66;74.22
57050;BME280;42935;50.966;16.992;2023-05-03T07:22:04;102643.43;;;9.95;73.46
57050;BME280;42935;50.966;16.992;2023-05-03T07:25:25;102624.83;;;9.88;71.24
57050;BME280;42935;50.966;16.992;2023-05-03T07:28:43;102634.08;;;10.09;71.58
57050;BME280;42935;50.966;16.992;2023-05-03T07:32:07;102631.49;;;9.87;69.57
57050;BME280;42935;50.966;16.992;2023-05-03T07:35:24;102625.71;;;9.96;69.35
57050;BME280;42935;50.966;16.992;2023-05-03T07:38:46;102633.25;;;10.00;68.85
57050;BME280;42935;50.966;16.992;2023-05-03T07:42:08;102627.45;;;10.13;68.66
57050;BME280;42935;50.966;16.992;2023-05-03T07:45:58;102632.33;;;10.64;67.36
57050;BME280;42935;50.966;16.992;2023-05-03T07:49:16;102623.01;;;10.73;65.29
57050;BME280;42935;50.966;16.992;2023-05-03T07:52:38;102629.34;;;11.02;66.02
57050;BME280;42935;50.966;16.992;2023-05-03T07:55:58;102621.13;;;11.06;64.86
57050;BME280;42935;50.966;16.992;2023-05-03T07:59:18;102627.02;;;11.18;64.42
57050;BME280;42935;50.966;16.992;2023-05-03T08:02:36;102622.41;;;11.27;64.53
57050;BME280;42935;50.966;16.992;2023-05-03T08:05:54;102612.66;;;11.58;63.49
57050;BME280;42935;50.966;16.992;2023-05-03T08:09:12;102616.11;;;11.90;62.69
57050;BME280;42935;50.966;16.992;2023-05-03T08:13:04;102608.30;;;12.11;61.20
57050;BME280;42935;50.966;16.992;2023-05-03T08:16:22;102610.87;;;11.64;58.19
57050;BME280;42935;50.966;16.992;2023-05-03T08:19:40;102619.01;;;12.02;58.84
57050;BME280;42935;50.966;16.992;2023-05-03T08:23:01;102620.90;;;12.10;57.53
57050;BME280;42935;50.966;16.992;2023-05-03T08:26:19;102614.02;;;12.11;57.63
57050;BME280;42935;50.966;16.992;2023-05-03T08:30:14;102621.20;;;12.56;58.67
57050;BME280;42935;50.966;16.992;2023-05-03T08:34:06;102611.48;;;13.05;55.93
57050;BME280;42935;50.966;16.992;2023-05-03T08:37:57;102616.28;;;12.93;55.19
57050;BME280;42935;50.966;16.992;2023-05-03T08:41:48;102608.36;;;13.26;55.64
57050;BME280;42935;50.966;16.992;2023-05-03T08:45:11;102613.41;;;13.33;54.64
57050;BME280;42935;50.966;16.992;2023-05-03T08:48:29;102615.82;;;12.40;55.45
57050;BME280;42935;50.966;16.992;2023-05-03T08:51:51;102623.84;;;11.89;55.91
57050;BME280;42935;50.966;16.992;2023-05-03T08:55:10;102619.81;;;11.90;56.31
57050;BME280;42935;50.966;16.992;2023-05-03T08:58:25;102633.81;;;11.88;56.06
57050;BME280;42935;50.966;16.992;2023-05-03T09:02:16;102616.15;;;12.09;55.99
57050;BME280;42935;50.966;16.992;2023-05-03T09:05:35;102627.13;;;12.47;55.94
57050;BME280;42935;50.966;16.992;2023-05-03T09:09:00;102618.08;;;13.00;55.32
57050;BME280;42935;50.966;16.992;2023-05-03T09:12:33;102623.78;;;13.03;53.47
57050;BME280;42935;50.966;16.992;2023-05-03T09:15:55;102620.47;;;13.10;53.93
57050;BME280;42935;50.966;16.992;2023-05-03T09:19:14;102617.34;;;12.88;54.37
57050;BME280;42935;50.966;16.992;2023-05-03T09:22:32;102620.45;;;12.95;54.08
57050;BME280;42935;50.966;16.992;2023-05-03T09:26:28;102625.83;;;12.91;53.50
57050;BME280;42935;50.966;16.992;2023-05-03T09:29:48;102619.46;;;12.58;53.81
57050;BME280;42935;50.966;16.992;2023-05-03T09:33:09;102609.63;;;12.56;54.08
57050;BME280;42935;50.966;16.992;2023-05-03T09:36:59;102600.63;;;12.85;54.55
57050;BME280;42935;50.966;16.992;2023-05-03T09:40:17;102604.28;;;13.36;53.04
57050;BME280;42935;50.966;16.992;2023-05-03T09:43:34;102614.43;;;13.42;52.53
57050;BME280;42935;50.966;16.992;2023-05-03T09:47:04;102614.16;;;12.73;52.59
57050;BME280;42935;50.966;16.992;2023-05-03T09:50:32;102586.55;;;13.50;52.89
57050;BME280;42935;50.966;16.992;2023-05-03T09:53:48;102618.21;;;13.92;51.24
57050;BME280;42935;50.966;16.992;2023-05-03T09:57:12;102602.69;;;14.28;52.26
57050;BME280;42935;50.966;16.992;2023-05-03T10:00:37;102610.70;;;14.24;52.56
57050;BME280;42935;50.966;16.992;2023-05-03T10:04:27;102607.59;;;14.16;49.60
57050;BME280;42935;50.966;16.992;2023-05-03T10:07:45;102605.73;;;14.13;49.34
57050;BME280;42935;50.966;16.992;2023-05-03T10:11:08;102601.71;;;14.46;50.31
57050;BME280;42935;50.966;16.992;2023-05-03T10:14:28;102611.51;;;13.78;50.30
57050;BME280;42935;50.966;16.992;2023-05-03T10:17:47;102569.16;;;12.66;50.68
57050;BME280;42935;50.966;16.992;2023-05-03T10:26:14;102595.05;;;14.06;50.46
57050;BME280;42935;50.966;16.992;2023-05-03T10:29:43;102594.07;;;14.54;50.18
57050;BME280;42935;50.966;16.992;2023-05-03T10:36:35;102588.27;;;15.08;49.34
57050;BME280;42935;50.966;16.992;2023-05-03T10:40:24;102585.67;;;14.38;49.71
57050;BME280;42935;50.966;16.992;2023-05-03T10:43:48;102584.73;;;13.46;49.31
57050;BME280;42935;50.966;16.992;2023-05-03T10:47:12;102590.06;;;13.22;49.67
57050;BME280;42935;50.966;16.992;2023-05-03T10:50:34;102581.66;;;13.51;49.86
57050;BME280;42935;50.966;16.992;2023-05-03T10:53:51;102572.14;;;14.11;48.89
57050;BME280;42935;50.966;16.992;2023-05-03T10:57:11;102582.94;;;14.04;49.49
57050;BME280;42935;50.966;16.992;2023-05-03T11:00:37;102577.39;;;14.41;49.40
57050;BME280;42935;50.966;16.992;2023-05-03T11:04:04;102578.84;;;15.20;48.35
57050;BME280;42935;50.966;16.992;2023-05-03T11:07:24;102577.36;;;15.50;47.24
57050;BME280;42935;50.966;16.992;2023-05-03T11:10:45;102580.08;;;14.87;48.14
57050;BME280;42935;50.966;16.992;2023-05-03T11:14:03;102578.13;;;15.70;46.99
57050;BME280;42935;50.966;16.992;2023-05-03T11:17:25;102569.55;;;15.83;46.82
57050;BME280;42935;50.966;16.992;2023-05-03T11:20:44;102577.41;;;15.65;45.84
57050;BME280;42935;50.966;16.992;2023-05-03T11:24:01;102580.88;;;15.24;46.56
57050;BME280;42935;50.966;16.992;2023-05-03T11:27:22;102582.24;;;14.64;47.28
57050;BME280;42935;50.966;16.992;2023-05-03T11:30:40;102578.48;;;14.61;46.93
57050;BME280;42935;50.966;16.992;2023-05-03T11:34:00;102575.52;;;15.58;47.82
57050;BME280;42935;50.966;16.992;2023-05-03T11:37:21;102575.87;;;14.70;47.62
57050;BME280;42935;50.966;16.992;2023-05-03T11:40:45;102538.82;;;14.69;48.26
57050;BME280;42935;50.966;16.992;2023-05-03T11:44:03;102573.00;;;15.20;48.41
57050;BME280;42935;50.966;16.992;2023-05-03T11:47:24;102571.52;;;16.19;47.15
57050;BME280;42935;50.966;16.992;2023-05-03T11:50:47;102573.39;;;15.41;47.78
57050;BME280;42935;50.966;16.992;2023-05-03T11:54:13;102570.62;;;15.27;46.88
57050;BME280;42935;50.966;16.992;2023-05-03T11:57:35;102568.29;;;14.45;46.90
57050;BME280;42935;50.966;16.992;2023-05-03T12:00:56;102569.18;;;15.32;46.77
57050;BME280;42935;50.966;16.992;2023-05-03T12:04:14;102573.11;;;15.53;46.63
57050;BME280;42935;50.966;16.992;2023-05-03T12:07:33;102566.91;;;15.85;45.81
57050;BME280;42935;50.966;16.992;2023-05-03T12:10:55;102564.58;;;16.46;45.63
57050;BME280;42935;50.966;16.992;2023-05-03T12:14:13;102567.51;;;15.31;46.79
57050;BME280;42935;50.966;16.992;2023-05-03T12:17:38;102565.21;;;15.17;47.00
57050;BME280;42935;50.966;16.992;2023-05-03T12:20:58;102566.48;;;16.15;46.50
57050;BME280;42935;50.966;16.992;2023-05-03T12:24:16;102559.33;;;16.28;45.42
57050;BME280;42935;50.966;16.992;2023-05-03T12:27:35;102556.51;;;16.59;47.04
57050;BME280;42935;50.966;16.992;2023-05-03T12:30:56;102546.89;;;16.27;48.67
57050;BME280;42935;50.966;16.992;2023-05-03T12:34:20;102556.43;;;15.57;45.94
57050;BME280;42935;50.966;16.992;2023-05-03T12:37:36;102553.45;;;16.27;45.68
57050;BME280;42935;50.966;16.992;2023-05-03T12:40:55;102511.06;;;16.30;44.88
57050;BME280;42935;50.966;16.992;2023-05-03T12:44:16;102550.48;;;16.53;44.51
57050;BME280;42935;50.966;16.992;2023-05-03T12:47:36;102551.00;;;16.61;45.01
57050;BME280;42935;50.966;16.992;2023-05-03T12:51:00;102542.23;;;17.07;44.15
57050;BME280;42935;50.966;16.992;2023-05-03T12:54:19;102532.62;;;16.68;45.05
57050;BME280;42935;50.966;16.992;2023-05-03T12:57:41;102528.61;;;16.22;43.42
57050;BME280;42935;50.966;16.992;2023-05-03T13:00:59;102529.06;;;16.15;43.43
57050;BME280;42935;50.966;16.992;2023-05-03T13:04:17;102533.72;;;16.07;44.43
57050;BME280;42935;50.966;16.992;2023-05-03T13:07:33;102527.72;;;17.14;43.42
57050;BME280;42935;50.966;16.992;2023-05-03T13:10:52;102522.79;;;18.20;44.89
57050;BME280;42935;50.966;16.992;2023-05-03T13:14:13;102512.39;;;18.54;43.74
57050;BME280;42935;50.966;16.992;2023-05-03T13:17:41;102477.98;;;18.45;44.04
57050;BME280;42935;50.966;16.992;2023-05-03T13:20:57;102512.45;;;17.83;43.33
57050;BME280;42935;50.966;16.992;2023-05-03T13:24:18;102475.05;;;18.11;43.16
57050;BME280;42935;50.966;16.992;2023-05-03T13:27:39;102501.38;;;19.19;41.13
57050;BME280;42935;50.966;16.992;2023-05-03T13:31:02;102492.73;;;18.79;41.80
57050;BME280;42935;50.966;16.992;2023-05-03T13:34:20;102495.44;;;18.94;40.57
57050;BME280;42935;50.966;16.992;2023-05-03T13:37:43;102496.92;;;19.22;40.80
57050;BME280;42935;50.966;16.992;2023-05-03T13:41:05;102478.15;;;19.78;40.52
57050;BME280;42935;50.966;16.992;2023-05-03T13:44:26;102483.41;;;20.31;39.64
57050;BME280;42935;50.966;16.992;2023-05-03T13:47:47;102478.14;;;20.38;39.25
57050;BME280;42935;50.966;16.992;2023-05-03T13:53:30;102475.16;;;20.33;38.76
57050;BME280;42935;50.966;16.992;2023-05-03T13:56:46;102472.61;;;20.76;37.24
57050;BME280;42935;50.966;16.992;2023-05-03T14:00:01;102474.95;;;20.96;37.74
57050;BME280;42935;50.966;16.992;2023-05-03T14:03:20;102469.75;;;20.14;39.86
57050;BME280;42935;50.966;16.992;2023-05-03T14:06:40;102462.04;;;19.18;41.71
57050;BME280;42935;50.966;16.992;2023-05-03T14:09:57;102468.82;;;18.02;43.25
57050;BME280;42935;50.966;16.992;2023-05-03T14:13:14;102469.77;;;18.81;41.40
57050;BME280;42935;50.966;16.992;2023-05-03T14:16:37;102469.07;;;19.20;40.69
57050;BME280;42935;50.966;16.992;2023-05-03T14:19:54;102465.16;;;19.10;40.08
57050;BME280;42935;50.966;16.992;2023-05-03T14:23:14;102471.41;;;18.60;39.68
57050;BME280;42935;50.966;16.992;2023-05-03T14:26:34;102461.96;;;19.33;41.42
57050;BME280;42935;50.966;16.992;2023-05-03T14:29:53;102458.63;;;19.71;39.70
57050;BME280;42935;50.966;16.992;2023-05-03T14:33:10;102457.27;;;20.44;40.48
57050;BME280;42935;50.966;16.992;2023-05-03T14:36:28;102458.83;;;20.21;38.19
57050;BME280;42935;50.966;16.992;2023-05-03T14:39:50;102458.44;;;19.81;37.76
57050;BME280;42935;50.966;16.992;2023-05-03T14:43:08;102464.41;;;19.06;37.93
57050;BME280;42935;50.966;16.992;2023-05-03T14:46:28;102471.19;;;18.68;39.30
57050;BME280;42935;50.966;16.992;2023-05-03T14:49:46;102457.13;;;19.10;40.49
57050;BME280;42935;50.966;16.992;2023-05-03T14:53:08;102450.80;;;19.90;39.47
57050;BME280;42935;50.966;16.992;2023-05-03T14:56:28;102459.61;;;20.31;38.80
57050;BME280;42935;50.966;16.992;2023-05-03T14:59:53;102451.59;;;21.01;38.64
57050;BME280;42935;50.966;16.992;2023-05-03T15:03:16;102453.70;;;21.19;37.77
57050;BME280;42935;50.966;16.992;2023-05-03T15:06:33;102456.79;;;22.00;36.89
57050;BME280;42935;50.966;16.992;2023-05-03T15:09:55;102465.70;;;21.74;36.93
57050;BME280;42935;50.966;16.992;2023-05-03T15:13:17;102461.26;;;22.45;37.40
57050;BME280;42935;50.966;16.992;2023-05-03T15:16:39;102458.73;;;22.33;37.88
57050;BME280;42935;50.966;16.992;2023-05-03T15:19:58;102470.01;;;21.52;36.37
57050;BME280;42935;50.966;16.992;2023-05-03T15:23:15;102466.52;;;21.35;36.92
57050;BME280;42935;50.966;16.992;2023-05-03T15:26:34;102462.71;;;22.05;36.83
57050;BME280;42935;50.966;16.992;2023-05-03T15:29:54;102463.52;;;22.40;36.92
57050;BME280;42935;50.966;16.992;2023-05-03T15:33:11;102462.16;;;22.01;35.20
57050;BME280;42935;50.966;16.992;2023-05-03T15:36:30;102460.42;;;21.72;35.50
57050;BME280;42935;50.966;16.992;2023-05-03T15:39:50;102452.60;;;22.22;36.71
57050;BME280;42935;50.966;16.992;2023-05-03T15:43:07;102453.55;;;22.62;35.04
57050;BME280;42935;50.966;16.992;2023-05-03T15:46:24;102451.52;;;23.92;35.05
57050;BME280;42935;50.966;16.992;2023-05-03T15:50:13;102461.84;;;21.20;36.07
57050;BME280;42935;50.966;16.992;2023-05-03T15:53:31;102452.69;;;22.75;35.56
57050;BME280;42935;50.966;16.992;2023-05-03T15:56:53;102449.39;;;24.10;34.47
57050;BME280;42935;50.966;16.992;2023-05-03T16:00:46;102441.80;;;23.13;33.82
57050;BME280;42935;50.966;16.992;2023-05-03T16:04:05;102459.23;;;21.66;35.40
57050;BME280;42935;50.966;16.992;2023-05-03T16:07:58;102454.81;;;23.18;34.69
57050;BME280;42935;50.966;16.992;2023-05-03T16:11:16;102459.02;;;22.97;34.10
57050;BME280;42935;50.966;16.992;2023-05-03T16:14:36;102456.79;;;23.19;34.29
57050;BME280;42935;50.966;16.992;2023-05-03T16:17:51;102450.60;;;23.66;34.63
57050;BME280;42935;50.966;16.992;2023-05-03T16:21:09;102449.73;;;23.13;33.83
57050;BME280;42935;50.966;16.992;2023-05-03T16:24:30;102449.00;;;22.88;33.78
57050;BME280;42935;50.966;16.992;2023-05-03T16:27:49;102453.84;;;22.71;33.48
57050;BME280;42935;50.966;16.992;2023-05-03T16:31:09;102452.54;;;22.75;33.35
57050;BME280;42935;50.966;16.992;2023-05-03T16:34:24;102452.23;;;22.62;33.48
57050;BME280;42935;50.966;16.992;2023-05-03T16:37:44;102452.36;;;21.60;34.71
57050;BME280;42935;50.966;16.992;2023-05-03T16:41:03;102457.07;;;21.51;35.02
57050;BME280;42935;50.966;16.992;2023-05-03T16:44:20;102452.13;;;21.62;34.82
57050;BME280;42935;50.966;16.992;2023-05-03T16:47:39;102454.90;;;21.14;34.97
57050;BME280;42935;50.966;16.992;2023-05-03T16:50:59;102450.84;;;21.43;34.91
57050;BME280;42935;50.966;16.992;2023-05-03T16:54:19;102456.48;;;21.58;34.27
57050;BME280;42935;50.966;16.992;2023-05-03T16:57:41;102454.49;;;21.09;34.85
57050;BME280;42935;50.966;16.992;2023-05-03T17:01:00;102455.81;;;19.86;35.48
57050;BME280;42935;50.966;16.992;2023-05-03T17:04:21;102454.64;;;19.70;35.97
57050;BME280;42935;50.966;16.992;2023-05-03T17:07:38;102451.80;;;20.07;37.01
57050;BME280;42935;50.966;16.992;2023-05-03T17:11:11;102449.18;;;20.43;36.03
57050;BME280;42935;50.966;16.992;2023-05-03T17:14:28;102452.21;;;20.43;36.19
57050;BME280;42935;50.966;16.992;2023-05-03T17:18:14;102444.46;;;20.26;36.52
57050;BME280;42935;50.966;16.992;2023-05-03T17:21:41;102449.48;;;20.59;36.41
57050;BME280;42935;50.966;16.992;2023-05-03T17:25:34;102448.53;;;20.27;36.21
57050;BME280;42935;50.966;16.992;2023-05-03T17:28:51;102449.77;;;20.05;36.25
57050;BME280;42935;50.966;16.992;2023-05-03T17:32:09;102450.52;;;19.57;37.08
57050;BME280;42935;50.966;16.992;2023-05-03T17:35:31;102457.52;;;19.00;37.90
57050;BME280;42935;50.966;16.992;2023-05-03T17:38:51;102460.29;;;18.43;38.38
57050;BME280;42935;50.966;16.992;2023-05-03T17:42:06;102450.99;;;18.13;39.16
57050;BME280;42935;50.966;16.992;2023-05-03T17:45:33;102459.20;;;17.94;39.08
57050;BME280;42935;50.966;16.992;2023-05-03T17:48:49;102462.29;;;17.74;39.58
57050;BME280;42935;50.966;16.992;2023-05-03T17:52:10;102460.87;;;17.32;40.14